createdAt,value
2022-12-18T00:01:25.756Z,20.73
2022-12-18T00:03:52.805Z,18.40
2022-12-18T00:06:19.670Z,17.70
2022-12-18T00:08:47.870Z,16.60
2022-12-18T00:11:18.168Z,18.07
2022-12-18T00:13:44.955Z,16.83
2022-12-18T00:16:14.381Z,18.13
2022-12-18T00:18:41.421Z,20.70
2022-12-18T00:21:10.392Z,18.60
2022-12-18T00:23:37.634Z,19.33
2022-12-18T00:26:06.191Z,20.00
2022-12-18T00:28:32.883Z,17.20
2022-12-18T00:31:02.709Z,17.50
2022-12-18T00:33:28.910Z,18.10
2022-12-18T00:35:54.962Z,16.53
2022-12-18T00:38:20.987Z,13.57
2022-12-18T00:40:47.010Z,16.27
2022-12-18T00:43:13.047Z,12.43
2022-12-18T00:45:39.161Z,15.77
2022-12-18T00:48:05.338Z,15.00
2022-12-18T00:50:31.464Z,15.63
2022-12-18T00:52:57.912Z,16.17
2022-12-18T00:55:23.951Z,16.60
2022-12-18T00:57:52.504Z,14.00
2022-12-18T01:00:18.620Z,12.23
2022-12-18T01:02:44.824Z,13.30
2022-12-18T01:05:12.510Z,14.80
2022-12-18T01:07:38.898Z,16.17
2022-12-18T01:10:06.031Z,15.37
2022-12-18T01:12:32.215Z,10.23
2022-12-18T01:14:58.402Z,13.37
2022-12-18T01:17:24.461Z,11.67
2022-12-18T01:19:50.588Z,9.70
2022-12-18T01:22:17.040Z,13.90
2022-12-18T01:24:43.056Z,14.03
2022-12-18T01:27:09.077Z,12.87
2022-12-18T01:29:35.148Z,15.20
2022-12-18T01:32:01.241Z,15.30
2022-12-18T01:34:27.304Z,11.70
2022-12-18T01:36:53.346Z,14.93
2022-12-18T01:39:19.526Z,13.33
2022-12-18T01:42:04.364Z,15.30
2022-12-18T01:45:01.480Z,16.00
2022-12-18T01:47:41.661Z,16.27
2022-12-18T01:50:13.052Z,16.40
2022-12-18T01:52:41.615Z,14.90
2022-12-18T01:55:08.756Z,15.10
2022-12-18T01:57:35.201Z,13.97
2022-12-18T02:00:08.089Z,15.03
2022-12-18T02:02:34.289Z,16.53
2022-12-18T02:05:00.684Z,16.63
2022-12-18T02:07:59.062Z,15.00
2022-12-18T02:10:29.699Z,18.40
2022-12-18T02:13:14.695Z,15.50
2022-12-18T02:16:07.193Z,16.00
2022-12-18T02:18:36.597Z,12.73
2022-12-18T02:21:27.405Z,15.80
2022-12-18T02:24:10.383Z,17.90
2022-12-18T02:26:39.450Z,16.00
2022-12-18T02:29:09.891Z,12.07
2022-12-18T02:31:40.888Z,16.30
2022-12-18T02:34:08.242Z,17.53
2022-12-18T02:36:36.804Z,17.80
2022-12-18T02:39:03.441Z,17.10
2022-12-18T02:41:30.285Z,13.83
2022-12-18T02:44:02.304Z,18.30
2022-12-18T02:46:40.679Z,14.23
2022-12-18T02:49:09.399Z,16.23
2022-12-18T02:51:48.485Z,20.43
2022-12-18T02:54:36.825Z,14.80
2022-12-18T02:57:16.941Z,14.57
2022-12-18T02:59:56.374Z,17.70
2022-12-18T03:02:51.708Z,16.60
2022-12-18T03:05:21.956Z,17.50
2022-12-18T03:07:57.319Z,15.20
2022-12-18T03:10:29.120Z,15.30
2022-12-18T03:13:02.917Z,16.83
2022-12-18T03:15:32.463Z,15.27
2022-12-18T03:18:05.412Z,19.00
2022-12-18T03:20:33.148Z,15.70
2022-12-18T03:23:04.960Z,14.73
2022-12-18T03:25:31.796Z,12.90
2022-12-18T03:28:00.705Z,16.97
2022-12-18T03:30:28.459Z,9.43
2022-12-18T03:33:02.431Z,14.47
2022-12-18T03:35:31.878Z,15.87
2022-12-18T03:37:57.982Z,12.40
2022-12-18T03:40:29.818Z,11.47
2022-12-18T03:43:03.350Z,12.53
2022-12-18T03:45:43.242Z,12.70
2022-12-18T03:48:42.133Z,13.10
2022-12-18T03:51:11.893Z,15.10
2022-12-18T03:53:45.235Z,13.97
2022-12-18T03:56:12.166Z,14.90
2022-12-18T03:58:39.167Z,16.30
2022-12-18T04:01:08.177Z,13.10
2022-12-18T04:03:36.516Z,14.10
2022-12-18T04:06:03.082Z,11.90
2022-12-18T04:08:29.596Z,14.57
2022-12-18T04:10:55.792Z,12.50
2022-12-18T04:13:23.524Z,14.57
2022-12-18T04:15:49.658Z,15.37
2022-12-18T04:18:15.725Z,12.57
2022-12-18T04:20:41.830Z,14.20
2022-12-18T04:23:07.886Z,13.50
2022-12-18T04:25:34.078Z,10.33
2022-12-18T04:28:00.127Z,12.70
2022-12-18T04:30:26.255Z,12.90
2022-12-18T04:32:52.564Z,17.30
2022-12-18T04:35:18.626Z,10.67
2022-12-18T04:37:44.659Z,10.00
2022-12-18T04:40:11.431Z,13.10
2022-12-18T04:42:37.496Z,15.83
2022-12-18T04:45:03.952Z,12.30
2022-12-18T04:47:30.944Z,11.30
2022-12-18T04:49:56.964Z,14.60
2022-12-18T04:52:26.037Z,13.37
2022-12-18T04:54:52.091Z,12.77
2022-12-18T04:57:20.995Z,13.77
2022-12-18T04:59:47.232Z,13.70
2022-12-18T05:02:13.391Z,14.70
2022-12-18T05:04:39.564Z,11.00
2022-12-18T05:07:05.591Z,13.37
2022-12-18T05:09:31.678Z,14.10
2022-12-18T05:11:57.715Z,14.43
2022-12-18T05:14:23.823Z,13.20
2022-12-18T05:16:50.227Z,12.47
2022-12-18T05:19:16.437Z,11.07
2022-12-18T05:21:42.494Z,14.93
2022-12-18T05:24:08.563Z,13.53
2022-12-18T05:26:34.580Z,12.37
2022-12-18T05:29:00.637Z,16.80
2022-12-18T05:31:26.710Z,13.13
2022-12-18T05:33:52.767Z,12.23
2022-12-18T05:36:18.977Z,9.87
2022-12-18T05:38:45.152Z,15.13
2022-12-18T05:41:11.219Z,13.83
2022-12-18T05:43:39.067Z,14.53
2022-12-18T05:46:07.881Z,14.60
2022-12-18T05:48:34.181Z,17.97
2022-12-18T05:51:08.417Z,13.43
2022-12-18T05:53:35.388Z,17.33
2022-12-18T05:56:05.991Z,12.20
2022-12-18T05:58:32.304Z,12.50
2022-12-18T06:00:58.789Z,15.57
2022-12-18T06:03:29.282Z,14.93
2022-12-18T06:05:58.307Z,10.97
2022-12-18T06:08:24.361Z,14.10
2022-12-18T06:10:52.945Z,13.83
2022-12-18T06:13:20.227Z,12.00
2022-12-18T06:15:46.324Z,12.90
2022-12-18T06:18:12.388Z,11.67
2022-12-18T06:20:39.961Z,13.77
2022-12-18T06:23:06.498Z,12.50
2022-12-18T06:25:33.357Z,15.50
2022-12-18T06:27:59.524Z,11.53
2022-12-18T06:30:25.572Z,14.60
2022-12-18T06:32:56.321Z,13.30
2022-12-18T06:35:23.349Z,10.97
2022-12-18T06:37:49.432Z,15.03
2022-12-18T06:40:15.504Z,16.63
2022-12-18T06:42:41.532Z,14.00
2022-12-18T06:45:08.225Z,13.43
2022-12-18T06:47:34.374Z,17.23
2022-12-18T06:50:00.647Z,12.60
2022-12-18T06:52:26.692Z,11.50
2022-12-18T06:54:52.708Z,15.33
2022-12-18T06:57:18.752Z,13.87
2022-12-18T06:59:44.944Z,15.90
2022-12-18T07:02:12.995Z,13.97
2022-12-18T07:04:39.129Z,12.53
2022-12-18T07:07:05.179Z,18.03
2022-12-18T07:09:31.239Z,13.67
2022-12-18T07:11:57.269Z,17.70
2022-12-18T07:14:24.016Z,15.53
2022-12-18T07:16:50.102Z,15.23
2022-12-18T07:19:16.208Z,18.33
2022-12-18T07:21:42.267Z,13.60
2022-12-18T07:24:08.310Z,13.70
2022-12-18T07:26:34.335Z,12.50
2022-12-18T07:29:00.372Z,12.67
2022-12-18T07:31:27.394Z,16.70
2022-12-18T07:33:53.868Z,12.60
2022-12-18T07:36:20.317Z,16.43
2022-12-18T07:38:50.146Z,12.27
2022-12-18T07:41:16.741Z,16.30
2022-12-18T07:43:43.225Z,19.67
2022-12-18T07:46:10.521Z,15.60
2022-12-18T07:48:38.409Z,17.00
2022-12-18T07:51:06.005Z,19.10
2022-12-18T07:53:33.402Z,20.60
2022-12-18T07:56:26.659Z,22.97
2022-12-18T07:58:51.630Z,22.07
2022-12-18T08:01:17.753Z,29.47
2022-12-18T08:03:44.630Z,20.67
2022-12-18T08:06:10.831Z,20.03
2022-12-18T08:08:37.487Z,19.17
2022-12-18T08:11:03.620Z,21.27
2022-12-18T08:13:29.729Z,23.03
2022-12-18T08:16:01.053Z,24.10
2022-12-18T08:18:27.382Z,18.98
2022-12-18T08:20:53.463Z,14.40
2022-12-18T08:23:19.816Z,18.97
2022-12-18T08:25:45.970Z,19.43
2022-12-18T08:28:12.359Z,19.97
2022-12-18T08:30:38.494Z,20.17
2022-12-18T08:33:05.447Z,16.23
2022-12-18T08:35:38.807Z,20.07
2022-12-18T08:38:07.196Z,13.73
2022-12-18T08:40:33.453Z,19.03
2022-12-18T08:43:17.774Z,16.30
2022-12-18T08:45:43.984Z,14.40
2022-12-18T08:48:10.074Z,17.20
2022-12-18T08:50:36.171Z,14.17
2022-12-18T08:53:02.582Z,15.87
2022-12-18T08:55:28.732Z,14.50
2022-12-18T08:57:54.874Z,19.40
2022-12-18T09:00:20.986Z,25.60
2022-12-18T09:02:47.400Z,20.70
2022-12-18T09:05:13.681Z,23.03
2022-12-18T09:07:39.935Z,20.13
2022-12-18T09:10:06.400Z,19.60
2022-12-18T09:12:32.536Z,16.20
2022-12-18T09:14:58.601Z,16.53
2022-12-18T09:17:24.722Z,17.47
2022-12-18T09:19:51.271Z,14.27
2022-12-18T09:22:17.328Z,17.07
2022-12-18T09:24:43.355Z,17.13
2022-12-18T09:27:09.378Z,15.87
2022-12-18T09:29:35.406Z,15.93
2022-12-18T09:32:01.464Z,16.87
2022-12-18T09:34:27.510Z,18.03
2022-12-18T09:36:53.553Z,14.00
2022-12-18T09:39:22.217Z,18.10
2022-12-18T09:41:58.166Z,14.90
2022-12-18T09:44:34.311Z,15.77
2022-12-18T09:47:14.846Z,10.47
2022-12-18T09:49:49.689Z,17.37
2022-12-18T09:52:30.117Z,14.40
2022-12-18T09:55:24.663Z,13.27
2022-12-18T09:57:57.601Z,18.23
2022-12-18T10:00:25.369Z,18.30
2022-12-18T10:02:54.105Z,25.37
2022-12-18T10:05:45.275Z,18.80
2022-12-18T10:08:48.562Z,19.53
2022-12-18T10:11:35.400Z,17.90
2022-12-18T10:14:04.956Z,20.53
2022-12-18T10:16:33.710Z,21.27
2022-12-18T10:19:37.569Z,26.60
2022-12-18T10:22:13.593Z,18.50
2022-12-18T10:24:45.411Z,20.40
2022-12-18T10:27:15.764Z,23.17
2022-12-18T10:29:43.610Z,21.00
2022-12-18T10:32:15.217Z,19.53
2022-12-18T10:34:41.248Z,24.27
2022-12-18T10:37:15.148Z,15.07
2022-12-18T10:39:41.187Z,19.17
2022-12-18T10:42:18.966Z,20.87
2022-12-18T10:44:45.611Z,19.47
2022-12-18T10:47:15.345Z,20.60
2022-12-18T10:49:52.469Z,21.50
2022-12-18T10:52:23.333Z,18.57
2022-12-18T10:54:52.508Z,18.63
2022-12-18T10:57:34.814Z,26.37
2022-12-18T11:00:21.160Z,23.30
2022-12-18T11:02:47.346Z,19.70
2022-12-18T11:05:24.171Z,22.17
2022-12-18T11:07:51.047Z,17.90
2022-12-18T11:10:19.050Z,18.37
2022-12-18T11:12:45.209Z,20.97
2022-12-18T11:15:20.836Z,21.33
2022-12-18T11:17:49.234Z,20.60
2022-12-18T11:20:36.744Z,16.03
2022-12-18T11:23:05.858Z,19.43
2022-12-18T11:25:34.659Z,23.47
2022-12-18T11:28:02.660Z,21.40
2022-12-18T11:30:36.732Z,22.53
2022-12-18T11:33:10.220Z,16.80
2022-12-18T11:35:55.837Z,18.00
2022-12-18T11:38:27.424Z,17.50
2022-12-18T11:41:00.742Z,20.77
2022-12-18T11:43:32.054Z,18.23
2022-12-18T11:46:06.080Z,15.43
2022-12-18T11:48:45.057Z,19.80
2022-12-18T11:51:23.774Z,20.70
2022-12-18T11:53:52.368Z,23.23
2022-12-18T11:56:34.023Z,19.60
2022-12-18T11:59:12.145Z,20.77
2022-12-18T12:02:00.994Z,18.30
2022-12-18T12:04:48.322Z,21.03
2022-12-18T12:07:22.729Z,19.43
2022-12-18T12:10:15.254Z,22.10
2022-12-18T12:13:06.850Z,22.33
2022-12-18T12:15:54.297Z,21.33
2022-12-18T12:18:37.232Z,21.37
2022-12-18T12:21:18.444Z,21.83
2022-12-18T12:24:11.724Z,20.00
2022-12-18T12:26:48.613Z,21.17
2022-12-18T12:29:31.088Z,17.37
2022-12-18T12:32:06.197Z,20.67
2022-12-18T12:35:09.434Z,25.10
2022-12-18T12:38:16.866Z,22.27
2022-12-18T12:40:56.625Z,19.20
2022-12-18T12:43:48.020Z,21.80
2022-12-18T12:46:18.513Z,19.67
2022-12-18T12:48:57.410Z,20.60
2022-12-18T12:51:34.372Z,20.40
2022-12-18T12:54:02.549Z,17.97
2022-12-18T12:56:52.937Z,19.50
2022-12-18T12:59:40.315Z,19.83
2022-12-18T13:02:12.404Z,18.20
2022-12-18T13:04:47.732Z,15.90
2022-12-18T13:07:20.025Z,16.60
2022-12-18T13:10:12.276Z,21.63
2022-12-18T13:13:07.322Z,22.80
2022-12-18T13:15:44.115Z,16.50
2022-12-18T13:18:10.234Z,20.40
2022-12-18T13:20:38.819Z,18.23
2022-12-18T13:23:20.252Z,20.40
2022-12-18T13:25:47.929Z,21.23
2022-12-18T13:28:15.342Z,28.27
2022-12-18T13:30:55.063Z,20.17
2022-12-18T13:34:01.971Z,21.83
2022-12-18T13:36:30.613Z,24.90
2022-12-18T13:42:08.753Z,16.80
2022-12-18T13:44:41.452Z,19.17
2022-12-18T13:47:34.670Z,15.43
2022-12-18T13:50:10.157Z,19.40
2022-12-18T13:52:38.414Z,15.47
2022-12-18T13:55:07.882Z,20.00
2022-12-18T13:57:38.601Z,17.03
2022-12-18T14:00:23.214Z,16.60
2022-12-18T14:02:50.648Z,21.87
2022-12-18T14:05:22.960Z,16.67
2022-12-18T14:07:51.666Z,17.73
2022-12-18T14:10:47.668Z,17.83
2022-12-18T14:13:07.560Z,15.37
2022-12-18T14:15:40.091Z,19.40
2022-12-18T14:18:21.085Z,16.70
2022-12-18T14:20:52.678Z,15.87
2022-12-18T14:23:31.559Z,17.17
2022-12-18T14:26:03.632Z,18.47
2022-12-18T14:28:31.759Z,19.33
2022-12-18T14:30:58.638Z,22.20
2022-12-18T14:33:26.693Z,18.40
2022-12-18T14:36:04.302Z,15.60
2022-12-18T14:38:38.410Z,12.80
2022-12-18T14:41:18.286Z,9.40
2022-12-18T14:43:48.271Z,7.37
2022-12-18T14:46:28.592Z,10.87
2022-12-18T14:48:55.926Z,7.30
2022-12-18T14:51:24.095Z,8.40
2022-12-18T14:53:59.050Z,9.67
2022-12-18T14:56:27.826Z,7.63
2022-12-18T14:58:56.525Z,9.93
2022-12-18T15:01:26.134Z,9.07
2022-12-18T15:03:53.733Z,7.50
2022-12-18T15:06:27.406Z,9.43
2022-12-18T15:08:53.896Z,9.77
2022-12-18T15:11:50.673Z,11.50
2022-12-18T15:14:41.942Z,10.00
2022-12-18T15:17:22.636Z,8.13
2022-12-18T15:19:52.279Z,9.20
2022-12-18T15:22:26.443Z,10.03
2022-12-18T15:24:53.108Z,10.00
2022-12-18T15:27:31.383Z,8.33
2022-12-18T15:30:09.339Z,8.53
2022-12-18T15:32:42.728Z,10.00
2022-12-18T15:35:08.834Z,14.17
2022-12-18T15:37:34.892Z,11.70
2022-12-18T15:40:02.536Z,9.77
2022-12-18T15:42:48.137Z,15.17
2022-12-18T15:45:15.145Z,10.53
2022-12-18T15:47:44.269Z,13.83
2022-12-18T15:50:10.647Z,13.33
2022-12-18T15:52:42.274Z,11.20
2022-12-18T15:55:37.121Z,9.60
2022-12-18T15:58:05.421Z,11.87
2022-12-18T16:00:33.429Z,18.07
2022-12-18T16:02:59.671Z,27.87
2022-12-18T16:05:26.619Z,21.47
2022-12-18T16:07:52.681Z,26.93
2022-12-18T16:10:18.747Z,14.30
2022-12-18T16:12:44.873Z,12.80
2022-12-18T16:15:13.799Z,14.50
2022-12-18T16:17:40.639Z,13.07
2022-12-18T16:20:13.196Z,14.27
2022-12-18T16:22:39.989Z,14.50
2022-12-18T16:25:06.579Z,15.23
2022-12-18T16:27:32.632Z,10.87
2022-12-18T16:29:58.683Z,12.30
2022-12-18T16:32:24.851Z,14.40
2022-12-18T16:34:51.007Z,13.27
2022-12-18T16:37:17.334Z,11.30
2022-12-18T16:39:44.452Z,15.20
2022-12-18T16:42:16.404Z,13.57
2022-12-18T16:44:43.378Z,17.23
2022-12-18T16:47:10.305Z,17.40
2022-12-18T16:49:39.442Z,19.20
2022-12-18T16:52:06.303Z,22.57
2022-12-18T16:54:34.376Z,16.27
2022-12-18T16:57:00.532Z,19.80
2022-12-18T16:59:27.041Z,21.50
2022-12-18T17:01:55.274Z,17.23
2022-12-18T17:04:21.394Z,17.97
2022-12-18T17:06:51.117Z,15.00
2022-12-18T17:09:27.746Z,17.53
2022-12-18T17:11:53.885Z,15.53
2022-12-18T17:14:22.365Z,20.87
2022-12-18T17:16:57.801Z,17.33
2022-12-18T17:19:34.814Z,19.00
2022-12-18T17:22:01.039Z,16.10
2022-12-18T17:24:31.411Z,18.37
2022-12-18T17:27:00.528Z,19.93
2022-12-18T17:29:26.622Z,18.27
2022-12-18T17:31:52.710Z,20.00
2022-12-18T17:34:21.208Z,18.70
2022-12-18T17:36:47.291Z,14.10
2022-12-18T17:39:18.004Z,17.70
2022-12-18T17:41:44.334Z,15.67
2022-12-18T17:44:10.584Z,17.90
2022-12-18T17:46:36.914Z,16.70
2022-12-18T17:49:03.530Z,17.40
2022-12-18T17:51:29.941Z,17.70
2022-12-18T17:53:56.533Z,17.90
2022-12-18T17:56:23.927Z,13.73
2022-12-18T17:58:50.307Z,13.13
2022-12-18T18:01:19.464Z,12.20
2022-12-18T18:03:47.075Z,17.17
2022-12-18T18:06:15.530Z,14.03
2022-12-18T18:08:41.663Z,11.17
2022-12-18T18:11:32.852Z,12.03
2022-12-18T18:14:02.003Z,11.43
2022-12-18T18:16:41.244Z,16.60
2022-12-18T18:19:10.279Z,17.53
2022-12-18T18:21:41.323Z,13.50
2022-12-18T18:24:09.704Z,18.20
2022-12-18T18:26:36.462Z,16.53
2022-12-18T18:29:04.822Z,16.90
2022-12-18T18:31:34.049Z,18.67
2022-12-18T18:34:07.010Z,13.90
2022-12-18T18:36:34.218Z,13.77
2022-12-18T18:39:01.022Z,29.57
2022-12-18T18:41:28.958Z,18.97
2022-12-18T18:43:56.203Z,17.80
2022-12-18T18:46:22.923Z,25.37
2022-12-18T18:48:49.039Z,17.17
2022-12-18T18:51:16.537Z,21.50
2022-12-18T18:53:48.726Z,18.50
2022-12-18T18:56:45.100Z,22.33
2022-12-18T18:59:03.121Z,21.23
2022-12-18T19:01:29.322Z,14.90
2022-12-18T19:03:55.781Z,19.07
2022-12-18T19:06:26.960Z,28.70
2022-12-18T19:08:54.454Z,22.50
2022-12-18T19:11:47.333Z,23.57
2022-12-18T19:14:14.604Z,24.93
2022-12-18T19:16:41.359Z,20.80
2022-12-18T19:19:07.916Z,19.07
2022-12-18T19:21:34.742Z,21.90
2022-12-18T19:24:01.745Z,23.17
2022-12-18T19:26:28.694Z,43.17
2022-12-18T19:29:03.672Z,45.80
2022-12-18T19:31:35.192Z,23.10
2022-12-18T19:34:06.163Z,26.03
2022-12-18T19:36:34.207Z,26.33
2022-12-18T19:39:01.598Z,21.90
2022-12-18T19:41:30.635Z,20.77
2022-12-18T19:43:57.768Z,21.20
2022-12-18T19:46:23.879Z,23.37
2022-12-18T19:48:50.908Z,22.70
2022-12-18T19:51:20.315Z,19.77
2022-12-18T19:53:46.971Z,16.93
2022-12-18T19:56:15.751Z,23.10
2022-12-18T19:58:42.549Z,21.83
2022-12-18T20:01:09.066Z,23.00
2022-12-18T20:03:36.965Z,20.20
2022-12-18T20:06:13.844Z,20.70
2022-12-18T20:08:40.412Z,20.13
2022-12-18T20:11:06.959Z,17.80
2022-12-18T20:13:33.491Z,17.87
2022-12-18T20:15:59.590Z,10.80
2022-12-18T20:18:26.009Z,15.37
2022-12-18T20:20:52.555Z,19.80
2022-12-18T20:23:19.312Z,15.50
2022-12-18T20:25:45.348Z,17.70
2022-12-18T20:28:11.684Z,17.23
2022-12-18T20:30:37.883Z,17.77
2022-12-18T20:33:04.181Z,16.03
2022-12-18T20:35:32.457Z,17.50
2022-12-18T20:37:58.820Z,17.40
2022-12-18T20:40:26.825Z,19.40
2022-12-18T20:42:52.844Z,15.73
2022-12-18T20:45:19.184Z,16.90
2022-12-18T20:47:45.203Z,16.83
2022-12-18T20:50:11.432Z,12.77
2022-12-18T20:52:37.500Z,17.80
2022-12-18T20:55:06.839Z,14.97
2022-12-18T20:57:33.143Z,18.07
2022-12-18T21:00:00.379Z,21.37
2022-12-18T21:02:26.635Z,17.20
2022-12-18T21:04:53.506Z,20.53
2022-12-18T21:07:19.573Z,20.37
2022-12-18T21:09:45.620Z,18.90
2022-12-18T21:12:34.059Z,18.70
2022-12-18T21:15:09.020Z,17.57
2022-12-18T21:17:44.252Z,20.13
2022-12-18T21:20:11.896Z,19.10
2022-12-18T21:22:43.722Z,16.60
2022-12-18T21:25:09.785Z,16.70
2022-12-18T21:27:35.833Z,23.33
2022-12-18T21:30:02.162Z,17.40
2022-12-18T21:32:29.875Z,19.47
2022-12-18T21:34:59.665Z,17.67
2022-12-18T21:37:25.978Z,20.23
2022-12-18T21:39:52.144Z,24.07
2022-12-18T21:42:37.010Z,23.37
2022-12-18T21:45:03.362Z,23.03
2022-12-18T21:47:29.462Z,22.90
2022-12-18T21:49:55.546Z,21.00
2022-12-18T21:52:28.627Z,20.50
2022-12-18T21:55:06.196Z,20.63
2022-12-18T21:57:35.275Z,22.13
2022-12-18T22:00:02.238Z,22.00
2022-12-18T22:02:28.517Z,22.80
2022-12-18T22:04:54.688Z,25.30
2022-12-18T22:07:21.292Z,18.60
2022-12-18T22:09:49.132Z,20.70
2022-12-18T22:12:34.330Z,23.77
2022-12-18T22:15:01.033Z,22.37
2022-12-18T22:17:27.130Z,22.90
2022-12-18T22:19:54.212Z,20.80
2022-12-18T22:22:23.585Z,23.53
2022-12-18T22:24:49.672Z,20.80
2022-12-18T22:27:15.703Z,23.30
2022-12-18T22:30:00.156Z,21.40
2022-12-18T22:32:30.635Z,25.60
2022-12-18T22:35:04.561Z,23.10
2022-12-18T22:37:33.227Z,19.80
2022-12-18T22:39:59.264Z,18.73
2022-12-18T22:42:30.153Z,16.83
2022-12-18T22:44:56.253Z,28.13
2022-12-18T22:47:26.507Z,22.97
2022-12-18T22:49:55.335Z,23.33
2022-12-18T22:52:21.357Z,15.50
2022-12-18T22:54:49.864Z,18.63
2022-12-18T22:57:15.956Z,17.90
2022-12-18T22:59:42.074Z,24.30
2022-12-18T23:02:08.212Z,23.33
2022-12-18T23:04:36.499Z,20.60
2022-12-18T23:07:04.424Z,21.80
2022-12-18T23:09:30.664Z,22.07
2022-12-18T23:11:56.720Z,22.67
2022-12-18T23:14:22.768Z,14.73
2022-12-18T23:16:48.801Z,18.10
2022-12-18T23:19:16.821Z,24.27
2022-12-18T23:21:42.886Z,24.43
2022-12-18T23:24:08.934Z,21.50
2022-12-18T23:26:35.277Z,22.80
2022-12-18T23:29:01.526Z,23.50
2022-12-18T23:31:32.375Z,23.60
2022-12-18T23:34:00.069Z,29.23
2022-12-18T23:36:26.633Z,25.03
2022-12-18T23:38:54.675Z,27.60
2022-12-18T23:41:22.764Z,21.23
2022-12-18T23:43:49.084Z,22.33
2022-12-18T23:46:21.456Z,25.57
2022-12-18T23:48:47.824Z,19.20
2022-12-18T23:51:15.255Z,18.60
2022-12-18T23:53:42.096Z,28.00
2022-12-18T23:56:09.453Z,21.13
2022-12-18T23:58:37.085Z,23.60
